TimeCST,TemperatureF,Dew PointF,Humidity,Sea Level PressureIn,VisibilityMPH,Wind Direction,Wind SpeedMPH,Gust SpeedMPH,PrecipitationIn,Events,Conditions,WindDirDegrees,DateUTC
12:54 AM,46.0,37.0,71,30.04,10.0,West,4.6,-,N/A,,Clear,280,2013-11-18 06:54:00
1:54 AM,44.1,36.0,73,30.04,10.0,West,5.8,-,N/A,,Clear,260,2013-11-18 07:54:00
2:54 AM,42.1,35.1,76,30.06,10.0,West,4.6,-,N/A,,Clear,280,2013-11-18 08:54:00
3:54 AM,41.0,35.1,79,30.08,10.0,WNW,6.9,-,N/A,,Clear,290,2013-11-18 09:54:00
4:54 AM,39.0,34.0,82,30.10,10.0,WNW,5.8,-,N/A,,Clear,290,2013-11-18 10:54:00
5:54 AM,39.0,34.0,82,30.14,10.0,NW,6.9,-,N/A,,Clear,310,2013-11-18 11:54:00
6:54 AM,35.1,33.1,92,30.16,10.0,WSW,8.1,-,N/A,,Clear,250,2013-11-18 12:54:00
7:54 AM,39.9,35.1,83,30.20,10.0,West,8.1,-,N/A,,Clear,260,2013-11-18 13:54:00
8:54 AM,43.0,36.0,76,30.24,10.0,West,11.5,-,N/A,,Clear,280,2013-11-18 14:54:00
9:54 AM,46.9,33.1,59,30.27,10.0,WNW,15.0,23.0,N/A,,Clear,290,2013-11-18 15:54:00
10:54 AM,48.9,33.1,54,30.28,10.0,WNW,16.1,-,N/A,,Clear,300,2013-11-18 16:54:00
11:54 AM,52.0,30.9,45,30.27,10.0,NW,11.5,-,N/A,,Clear,310,2013-11-18 17:54:00
12:54 PM,53.1,28.9,40,30.25,10.0,WNW,12.7,20.7,N/A,,Clear,290,2013-11-18 18:54:00
1:54 PM,54.0,30.0,40,30.25,10.0,WNW,11.5,18.4,N/A,,Clear,290,2013-11-18 19:54:00
2:54 PM,54.0,28.0,37,30.25,10.0,WNW,10.4,-,N/A,,Clear,300,2013-11-18 20:54:00
3:54 PM,53.1,28.0,38,30.26,10.0,West,6.9,-,N/A,,Clear,280,2013-11-18 21:54:00
4:54 PM,50.0,28.0,43,30.26,10.0,West,3.5,-,N/A,,Clear,280,2013-11-18 22:54:00
5:54 PM,46.9,28.0,48,30.27,10.0,Calm,Calm,-,N/A,,Clear,0,2013-11-18 23:54:00
6:54 PM,45.0,27.0,49,30.28,10.0,Calm,Calm,-,N/A,,Clear,0,2013-11-19 00:54:00
7:54 PM,45.0,27.0,49,30.28,10.0,Calm,Calm,-,N/A,,Clear,0,2013-11-19 01:54:00
8:54 PM,45.0,27.0,49,30.30,10.0,Calm,Calm,-,N/A,,Clear,0,2013-11-19 02:54:00
9:54 PM,42.1,27.0,55,30.30,10.0,SSE,3.5,-,N/A,,Clear,150,2013-11-19 03:54:00
10:54 PM,42.1,27.0,55,30.30,10.0,SSE,3.5,-,N/A,,Clear,150,2013-11-19 04:54:00
11:54 PM,39.9,27.0,60,30.30,10.0,ESE,4.6,-,N/A,,Clear,110,2013-11-19 05:54:00